Time;durP1;ratioP1;P1;durP2;ratioP2;P2;SDS_P1;SDS_P2;PMS_P1;PMS_P2;Temp;Humidity;BMP_temperature;BMP_pressure;BME280_temperature;BME280_humidity;BME280_pressure;Samples;Min_cycle;Max_cycle;Signal;HPM_P1;HPM_P2
2024/03/30 00:02:32;;;;;;;12.43;1.98;;;14.70;84.20;;;;;;8312475;28;20510;-87
2024/03/30 00:06:33;;;;;;;12.90;1.73;;;14.70;84.80;;;;;;8313832;28;20402;-87
2024/03/30 00:10:36;;;;;;;16.98;2.50;;;14.60;82.40;;;;;;8316272;28;20040;-88
2024/03/30 00:14:37;;;;;;;14.80;2.10;;;14.90;82.80;;;;;;8316086;28;20029;-87
2024/03/30 00:18:38;;;;;;;20.05;2.63;;;14.80;84.20;;;;;;8305139;28;20030;-88
2024/03/30 00:22:40;;;;;;;14.80;2.15;;;14.80;82.00;;;;;;8314745;28;20053;-87
2024/03/30 00:26:40;;;;;;;12.23;1.70;;;15.00;79.90;;;;;;8319246;28;20061;-87
2024/03/30 00:30:45;;;;;;;14.40;2.17;;;14.90;80.80;;;;;;8317308;28;20040;-87
2024/03/30 00:34:48;;;;;;;7.45;1.30;;;15.00;80.20;;;;;;8311152;28;20471;-88
2024/03/30 00:38:48;;;;;;;14.82;2.55;;;15.30;77.90;;;;;;8317734;28;20030;-88
2024/03/30 00:42:49;;;;;;;12.40;2.10;;;15.40;78.50;;;;;;8319951;28;20037;-86
2024/03/30 00:46:49;;;;;;;13.68;1.65;;;15.50;81.00;;;;;;8317152;28;20064;-87
2024/03/30 00:50:52;;;;;;;7.90;1.42;;;15.40;79.60;;;;;;8316713;28;20014;-87
2024/03/30 00:54:52;;;;;;;12.05;1.60;;;15.30;80.40;;;;;;8314799;28;20033;-87
2024/03/30 00:58:53;;;;;;;10.93;1.42;;;14.60;80.20;;;;;;8311285;28;20033;-88
2024/03/30 01:02:54;;;;;;;12.85;1.73;;;15.30;80.30;;;;;;8315440;28;20029;-87
2024/03/30 01:06:58;;;;;;;8.35;1.13;;;15.20;79.70;;;;;;8331492;28;20052;-88
2024/03/30 01:11:01;;;;;;;9.20;1.25;;;15.20;80.80;;;;;;8308804;28;20069;-88
2024/03/30 01:15:03;;;;;;;12.95;2.30;;;15.20;81.20;;;;;;8309499;28;20034;-88
2024/03/30 01:19:04;;;;;;;10.10;1.73;;;15.10;80.30;;;;;;8313626;28;20022;-88
2024/03/30 01:23:05;;;;;;;12.63;1.63;;;15.10;79.70;;;;;;8329198;28;20056;-87
2024/03/30 01:27:25;;;;;;;9.40;1.75;;;15.10;81.00;;;;;;8316687;28;20040;-88
2024/03/30 01:31:25;;;;;;;13.60;1.88;;;15.10;80.80;;;;;;8309618;28;20021;-87
2024/03/30 01:35:26;;;;;;;11.13;1.95;;;14.80;82.70;;;;;;8308533;28;20022;-86
2024/03/30 01:39:27;;;;;;;9.55;1.77;;;14.30;86.10;;;;;;8308511;28;20029;-87
2024/03/30 01:43:28;;;;;;;6.10;1.60;;;13.90;90.70;;;;;;8326261;28;20087;-88
2024/03/30 01:47:31;;;;;;;9.40;1.77;;;13.50;91.10;;;;;;8318433;28;20032;-88
2024/03/30 01:51:33;;;;;;;12.23;1.77;;;13.30;90.90;;;;;;8309810;28;20021;-87
2024/03/30 01:55:35;;;;;;;11.38;1.70;;;13.10;92.70;;;;;;8326821;28;20025;-87
2024/03/30 01:59:36;;;;;;;16.50;1.77;;;12.90;91.40;;;;;;8310674;28;20034;-87
2024/03/30 02:03:36;;;;;;;11.80;1.83;;;12.80;90.40;;;;;;8312545;28;20138;-87
2024/03/30 02:07:37;;;;;;;7.15;1.48;;;12.80;90.60;;;;;;8311244;28;20484;-88
2024/03/30 02:11:41;;;;;;;9.70;1.52;;;13.10;87.60;;;;;;8308151;28;20057;-87
2024/03/30 02:15:41;;;;;;;9.38;1.25;;;13.90;86.70;;;;;;8313396;28;20026;-87
2024/03/30 02:19:45;;;;;;;8.05;1.40;;;13.50;90.90;;;;;;8312573;28;20026;-87
2024/03/30 02:23:45;;;;;;;11.65;1.40;;;13.20;92.40;;;;;;8327655;28;20034;-88
2024/03/30 02:27:47;;;;;;;7.05;1.75;;;12.80;91.70;;;;;;8313036;28;20053;-87
2024/03/30 02:31:48;;;;;;;14.80;1.55;;;13.00;90.40;;;;;;8308960;28;20091;-88
2024/03/30 02:35:51;;;;;;;11.50;1.23;;;13.30;90.10;;;;;;8303895;28;20025;-87
2024/03/30 02:39:52;;;;;;;11.27;1.27;;;13.60;90.00;;;;;;8308083;28;20029;-87
2024/03/30 02:43:56;;;;;;;13.05;1.52;;;13.40;91.50;;;;;;8306345;28;20029;-87
2024/03/30 02:47:56;;;;;;;13.27;1.92;;;13.30;90.60;;;;;;8298666;28;20053;-88
2024/03/30 02:51:57;;;;;;;11.05;1.75;;;13.30;89.20;;;;;;8303350;28;20025;-88
2024/03/30 02:55:57;;;;;;;10.82;1.20;;;13.30;90.50;;;;;;8313468;28;20494;-86
2024/03/30 02:59:58;;;;;;;7.97;1.52;;;13.10;91.40;;;;;;8308964;28;20037;-87
2024/03/30 03:03:59;;;;;;;14.07;1.38;;;12.80;92.80;;;;;;8305076;28;20049;-87
2024/03/30 03:07:59;;;;;;;15.05;1.65;;;12.40;92.80;;;;;;8309841;28;20030;-87
2024/03/30 03:12:01;;;;;;;17.05;1.40;;;12.40;91.70;;;;;;8312956;28;20026;-87
2024/03/30 03:16:05;;;;;;;11.82;1.73;;;12.40;91.80;;;;;;8308395;28;20402;-88
2024/03/30 03:20:06;;;;;;;7.72;1.65;;;12.40;93.70;;;;;;8299137;28;20033;-87
2024/03/30 03:24:07;;;;;;;10.70;1.40;;;12.30;93.70;;;;;;8307360;28;20034;-87
2024/03/30 03:28:07;;;;;;;10.85;1.20;;;12.00;95.40;;;;;;8307977;28;20044;-87
2024/03/30 03:32:08;;;;;;;9.95;1.58;;;11.60;96.90;;;;;;8304746;28;20025;-87
2024/03/30 03:36:10;;;;;;;12.35;2.03;;;11.20;98.20;;;;;;8326386;28;20066;-87
2024/03/30 03:40:11;;;;;;;5.18;1.02;;;11.00;97.20;;;;;;8303760;28;20053;-87
2024/03/30 03:44:11;;;;;;;7.35;1.40;;;10.90;97.50;;;;;;8331148;28;20029;-87
2024/03/30 03:48:12;;;;;;;7.93;1.40;;;10.90;97.80;;;;;;8310242;28;20029;-87
2024/03/30 03:52:13;;;;;;;7.72;1.58;;;10.80;97.80;;;;;;8323251;28;20021;-87
2024/03/30 03:56:13;;;;;;;9.15;1.50;;;10.90;97.10;;;;;;8323742;28;20029;-87
2024/03/30 04:00:14;;;;;;;5.53;1.10;;;11.30;96.10;;;;;;8305179;28;20025;-87
2024/03/30 04:04:15;;;;;;;10.80;1.65;;;11.70;92.30;;;;;;8308273;28;20052;-88
2024/03/30 04:08:17;;;;;;;10.50;1.65;;;12.30;92.00;;;;;;8304026;28;20049;-87
2024/03/30 04:12:18;;;;;;;9.70;1.50;;;12.60;93.10;;;;;;8305742;28;20053;-88
2024/03/30 04:16:18;;;;;;;9.82;1.40;;;12.50;92.70;;;;;;8306938;28;20213;-88
2024/03/30 04:20:22;;;;;;;9.45;1.70;;;12.20;94.20;;;;;;8325410;28;20029;-88
2024/03/30 04:24:22;;;;;;;6.38;1.42;;;12.30;93.80;;;;;;8306388;28;20030;-88
2024/03/30 04:28:23;;;;;;;8.07;1.55;;;12.70;93.20;;;;;;8299673;28;20140;-87
2024/03/30 04:32:24;;;;;;;10.88;1.50;;;12.90;92.90;;;;;;8302645;28;20495;-87
2024/03/30 04:36:24;;;;;;;9.10;1.63;;;13.00;93.20;;;;;;8310737;28;20084;-87
2024/03/30 04:40:28;;;;;;;10.00;1.08;;;12.60;93.80;;;;;;8301809;28;20050;-87
2024/03/30 04:44:29;;;;;;;10.43;1.55;;;12.50;93.70;;;;;;8310220;28;20075;-87
2024/03/30 04:48:30;;;;;;;11.15;1.88;;;12.30;93.00;;;;;;8309267;28;20044;-88
2024/03/30 04:52:31;;;;;;;15.70;2.50;;;12.00;93.50;;;;;;8305944;28;20030;-87
2024/03/30 04:56:31;;;;;;;12.23;1.75;;;12.30;92.20;;;;;;8308344;28;20025;-87
2024/03/30 05:00:34;;;;;;;7.72;1.88;;;12.60;91.40;;;;;;8306106;28;20028;-87
2024/03/30 05:04:34;;;;;;;18.52;2.45;;;12.70;90.90;;;;;;8305791;28;20494;-87
2024/03/30 05:08:35;;;;;;;12.30;1.95;;;12.90;90.10;;;;;;8298151;28;20036;-87
2024/03/30 05:12:36;;;;;;;12.82;2.20;;;12.80;90.60;;;;;;8301235;28;20112;-87
2024/03/30 05:16:36;;;;;;;20.38;2.20;;;12.80;91.50;;;;;;8308070;28;20018;-88
2024/03/30 05:20:51;;;;;;;11.48;1.83;;;12.50;92.50;;;;;;8303571;28;20105;-88
2024/03/30 05:24:51;;;;;;;12.90;1.80;;;12.50;92.50;;;;;;8304299;28;20037;-87
2024/03/30 05:28:52;;;;;;;12.77;1.60;;;12.20;95.20;;;;;;8298239;28;20029;-86
2024/03/30 05:32:52;;;;;;;13.13;1.48;;;11.50;96.50;;;;;;8296829;28;20113;-87
2024/03/30 05:36:53;;;;;;;11.30;1.70;;;11.10;99.00;;;;;;8292949;28;20053;-86
2024/03/30 05:40:53;;;;;;;14.07;2.03;;;10.60;99.60;;;;;;8291919;28;20021;-87
2024/03/30 05:44:54;;;;;;;10.00;1.80;;;10.30;99.50;;;;;;8291637;28;20113;-87
2024/03/30 05:48:54;;;;;;;10.63;1.65;;;9.80;99.90;;;;;;8294590;28;20673;-86
2024/03/30 05:52:55;;;;;;;12.30;1.77;;;9.80;99.90;;;;;;8293996;28;20515;-86
2024/03/30 05:56:56;;;;;;;15.55;2.08;;;9.90;99.90;;;;;;8295450;28;20053;-86
2024/03/30 06:00:56;;;;;;;13.70;1.77;;;9.90;99.50;;;;;;8311405;28;20126;-87
2024/03/30 06:04:57;;;;;;;18.83;2.05;;;10.00;99.90;;;;;;8287650;28;20029;-86
2024/03/30 06:08:57;;;;;;;9.55;1.90;;;9.90;99.90;;;;;;8293759;28;20095;-86
2024/03/30 06:12:58;;;;;;;13.55;1.58;;;9.80;99.90;;;;;;8308030;28;20026;-87
2024/03/30 06:16:58;;;;;;;20.60;2.08;;;9.90;99.90;;;;;;8290263;28;20438;-86
2024/03/30 06:20:59;;;;;;;11.50;2.35;;;10.00;99.90;;;;;;8310156;28;20046;-87
2024/03/30 06:25:01;;;;;;;18.15;2.20;;;10.20;99.90;;;;;;8287645;28;20521;-87
2024/03/30 06:29:01;;;;;;;19.95;2.75;;;10.50;99.90;;;;;;8291200;28;20026;-87
2024/03/30 06:33:02;;;;;;;14.05;2.22;;;10.80;99.70;;;;;;8294352;28;20022;-86
2024/03/30 06:37:03;;;;;;;19.63;1.88;;;11.10;99.30;;;;;;8289698;28;20028;-87
2024/03/30 06:45:22;;;;;;;11.35;2.17;;;11.70;99.90;;;;;;8284955;28;20415;-86
2024/03/30 06:49:23;;;;;;;16.65;1.92;;;12.10;99.90;;;;;;8307803;28;20065;-86
2024/03/30 06:53:23;;;;;;;15.90;2.38;;;12.50;99.90;;;;;;8285717;28;20026;-87
2024/03/30 06:57:24;;;;;;;15.60;2.50;;;12.70;98.50;;;;;;8292001;28;20021;-87
2024/03/30 07:01:27;;;;;;;14.70;2.33;;;13.10;98.20;;;;;;8294099;28;20465;-86
2024/03/30 07:05:27;;;;;;;25.98;2.78;;;13.40;97.70;;;;;;8299092;28;20018;-87
2024/03/30 07:09:29;;;;;;;15.35;1.95;;;13.90;98.30;;;;;;8292818;28;20072;-85
2024/03/30 07:13:30;;;;;;;18.98;2.42;;;14.00;98.30;;;;;;8301421;28;20030;-86
2024/03/30 07:17:31;;;;;;;19.38;2.97;;;14.40;98.70;;;;;;8297943;28;20065;-87
2024/03/30 07:21:31;;;;;;;22.85;3.08;;;14.60;96.70;;;;;;8297448;28;20036;-86
2024/03/30 07:25:36;;;;;;;13.32;2.47;;;15.00;95.70;;;;;;8293495;28;20093;-86
2024/03/30 07:29:37;;;;;;;13.02;2.45;;;15.30;96.30;;;;;;8299735;28;20054;-86
2024/03/30 07:33:37;;;;;;;15.73;2.70;;;15.80;95.90;;;;;;8294507;28;20018;-86
2024/03/30 07:37:38;;;;;;;19.70;3.13;;;16.70;95.90;;;;;;8299738;28;20030;-86
2024/03/30 07:41:38;;;;;;;13.40;1.70;;;17.00;92.60;;;;;;8304251;28;20022;-86
2024/03/30 07:45:39;;;;;;;16.35;2.40;;;17.10;92.80;;;;;;8295096;28;20075;-85
2024/03/30 07:49:39;;;;;;;13.43;2.13;;;17.00;90.90;;;;;;8299627;28;20088;-86
2024/03/30 07:53:40;;;;;;;17.58;2.38;;;17.00;90.40;;;;;;8315898;28;20026;-86
2024/03/30 07:57:41;;;;;;;8.48;1.58;;;17.30;91.10;;;;;;8299347;28;20566;-86
2024/03/30 08:01:41;;;;;;;13.63;2.75;;;17.50;85.20;;;;;;8297818;28;20033;-86
2024/03/30 08:05:54;;;;;;;17.20;3.05;;;17.70;88.10;;;;;;8301251;28;20029;-86
2024/03/30 08:09:54;;;;;;;16.13;2.25;;;17.90;90.60;;;;;;8299517;28;20056;-86
2024/03/30 08:13:55;;;;;;;9.45;2.20;;;18.30;91.10;;;;;;8301507;28;20034;-86
2024/03/30 08:17:57;;;;;;;14.55;2.30;;;18.70;91.90;;;;;;8301287;28;20022;-86
2024/03/30 08:21:58;;;;;;;15.93;2.53;;;19.10;90.80;;;;;;8313245;28;20022;-86
2024/03/30 08:25:58;;;;;;;13.10;2.20;;;18.90;92.40;;;;;;8302543;28;20045;-86
2024/03/30 08:29:59;;;;;;;11.10;1.95;;;19.10;90.30;;;;;;8318989;28;20022;-86
2024/03/30 08:34:00;;;;;;;10.38;2.30;;;19.20;91.50;;;;;;8301025;28;20057;-86
2024/03/30 08:38:00;;;;;;;18.20;2.40;;;19.30;84.60;;;;;;8304172;28;20033;-86
2024/03/30 08:42:01;;;;;;;12.88;1.90;;;19.20;88.50;;;;;;8302880;28;20025;-86
2024/03/30 08:46:04;;;;;;;13.02;2.30;;;19.50;88.00;;;;;;8314192;28;20092;-85
2024/03/30 08:50:05;;;;;;;13.10;2.42;;;19.70;84.40;;;;;;8304108;28;20034;-86
2024/03/30 08:54:06;;;;;;;14.45;2.33;;;20.10;88.00;;;;;;8307399;28;20029;-86
2024/03/30 08:58:07;;;;;;;10.63;1.90;;;20.50;83.90;;;;;;8306418;28;20076;-86
2024/03/30 09:02:07;;;;;;;11.60;2.45;;;20.70;83.80;;;;;;8305937;28;20380;-87
2024/03/30 09:06:08;;;;;;;17.50;2.35;;;20.70;87.70;;;;;;8302158;28;20030;-87
2024/03/30 09:10:08;;;;;;;9.15;2.58;;;20.50;86.60;;;;;;8300187;28;20025;-87
2024/03/30 09:14:09;;;;;;;10.27;1.92;;;20.60;85.10;;;;;;8299754;28;20029;-87
2024/03/30 09:18:10;;;;;;;13.98;2.47;;;20.40;87.20;;;;;;8302038;28;20026;-87
2024/03/30 09:22:10;;;;;;;17.63;2.83;;;20.30;87.50;;;;;;8313525;28;20021;-86
2024/03/30 09:26:11;;;;;;;15.77;2.78;;;20.30;82.60;;;;;;8303473;28;20022;-86
2024/03/30 09:30:12;;;;;;;11.45;2.92;;;20.50;87.90;;;;;;8299460;28;20076;-87
2024/03/30 09:34:13;;;;;;;11.75;2.22;;;20.70;87.20;;;;;;8312375;28;20049;-86
2024/03/30 09:38:13;;;;;;;24.90;3.05;;;20.90;88.20;;;;;;8308306;28;20025;-86
2024/03/30 09:42:30;;;;;;;16.10;2.63;;;20.80;86.10;;;;;;8298872;28;20368;-87
2024/03/30 09:46:31;;;;;;;13.70;3.03;;;20.80;90.20;;;;;;8302156;28;20040;-86
2024/03/30 09:50:32;;;;;;;13.52;2.63;;;20.90;82.80;;;;;;8298574;28;20033;-87
2024/03/30 09:54:34;;;;;;;12.80;2.00;;;20.80;83.60;;;;;;8301651;28;20026;-87
2024/03/30 09:58:36;;;;;;;10.65;2.25;;;20.70;82.80;;;;;;8312869;28;20049;-85
2024/03/30 10:02:38;;;;;;;13.35;2.38;;;20.60;80.50;;;;;;8305944;28;20018;-87
2024/03/30 10:06:59;;;;;;;11.05;2.45;;;20.70;86.00;;;;;;8313857;28;20033;-87
2024/03/30 10:11:07;;;;;;;16.85;2.15;;;21.00;88.20;;;;;;8296749;28;20461;-87
2024/03/30 10:15:14;;;;;;;13.80;2.50;;;21.00;85.60;;;;;;8310722;28;20033;-87
2024/03/30 10:19:17;;;;;;;10.52;2.25;;;20.70;88.50;;;;;;8304300;28;20026;-87
2024/03/30 10:23:18;;;;;;;14.07;2.97;;;20.60;90.30;;;;;;8310408;28;20037;-87
2024/03/30 10:27:19;;;;;;;12.00;2.30;;;20.50;89.10;;;;;;8317693;28;20094;-87
2024/03/30 10:31:20;;;;;;;11.07;1.83;;;20.60;87.90;;;;;;8325421;28;20051;-86
2024/03/30 10:35:21;;;;;;;10.93;1.63;;;21.00;85.80;;;;;;8325597;28;20018;-87
2024/03/30 10:39:21;;;;;;;23.00;2.58;;;21.40;81.30;;;;;;8331240;28;20026;-87
2024/03/30 10:43:25;;;;;;;12.02;2.22;;;21.40;81.90;;;;;;8316547;28;20090;-88
2024/03/30 10:47:28;;;;;;;9.02;2.22;;;21.80;75.70;;;;;;8313031;28;20014;-87
2024/03/30 10:51:29;;;;;;;13.32;2.22;;;22.20;75.90;;;;;;8308470;28;20042;-87
2024/03/30 10:55:30;;;;;;;12.80;1.92;;;22.40;74.90;;;;;;8304929;28;20018;-87
2024/03/30 10:59:45;;;;;;;16.98;2.60;;;22.40;75.90;;;;;;8316484;28;20030;-88
2024/03/30 11:04:18;;;;;;;13.02;2.25;;;22.50;73.90;;;;;;8327739;28;20044;-87
2024/03/30 11:19:22;;;;;;;14.95;1.90;;;22.60;74.10;;;;;;8237217;28;20106;-88
2024/03/30 11:23:44;;;;;;;7.20;2.17;;;22.70;72.00;;;;;;8242743;28;20129;-87
2024/03/30 11:28:09;;;;;;;10.65;1.92;;;22.40;72.30;;;;;;8329700;28;20375;-86
2024/03/30 11:32:19;;;;;;;12.77;2.10;;;22.30;74.40;;;;;;8311476;28;20030;-87
2024/03/30 11:36:54;;;;;;;11.15;2.30;;;21.90;78.90;;;;;;8309632;28;20035;-87
2024/03/30 11:41:03;;;;;;;11.68;1.92;;;21.80;82.90;;;;;;8305135;28;20117;-86
2024/03/30 11:45:07;;;;;;;9.00;1.73;;;22.00;81.90;;;;;;8307946;28;20030;-86
2024/03/30 11:49:09;;;;;;;14.32;1.80;;;22.00;77.80;;;;;;8307912;28;20061;-86
2024/03/30 11:53:18;;;;;;;11.18;2.05;;;21.90;77.60;;;;;;8303777;28;20029;-86
2024/03/30 11:57:26;;;;;;;7.25;1.98;;;21.80;78.90;;;;;;8304733;28;20048;-87
2024/03/30 12:01:26;;;;;;;11.20;1.92;;;21.80;77.40;;;;;;8307159;28;20021;-86
2024/03/30 12:05:30;;;;;;;10.25;2.47;;;21.90;76.30;;;;;;8305197;28;20040;-86
2024/03/30 12:09:31;;;;;;;11.88;2.10;;;21.90;77.40;;;;;;8312022;28;20178;-86
2024/03/30 12:13:38;;;;;;;12.55;2.00;;;22.00;77.30;;;;;;8309900;28;20021;-85
2024/03/30 12:17:40;;;;;;;10.82;2.00;;;21.90;79.00;;;;;;8312886;28;20048;-88
2024/03/30 12:21:41;;;;;;;12.15;2.03;;;22.10;78.20;;;;;;8309699;28;20025;-87
2024/03/30 12:25:42;;;;;;;11.35;1.90;;;22.00;77.80;;;;;;8312232;28;20065;-87
2024/03/30 12:29:43;;;;;;;14.88;2.00;;;22.00;79.40;;;;;;8311234;28;20045;-87
2024/03/30 12:33:43;;;;;;;9.23;2.13;;;22.00;78.70;;;;;;8308861;28;20418;-86
2024/03/30 12:37:44;;;;;;;8.25;1.25;;;21.50;79.60;;;;;;8306907;28;20060;-86
2024/03/30 12:41:44;;;;;;;15.82;1.92;;;21.50;77.10;;;;;;8307909;28;20101;-86
2024/03/30 12:45:45;;;;;;;12.32;1.65;;;21.60;82.00;;;;;;8308621;28;20036;-87
2024/03/30 12:49:46;;;;;;;12.70;2.35;;;21.40;81.30;;;;;;8307829;28;20087;-87
2024/03/30 12:53:47;;;;;;;13.48;1.95;;;21.40;79.60;;;;;;8308902;28;20022;-86
2024/03/30 12:57:48;;;;;;;9.27;2.13;;;21.50;80.30;;;;;;8311173;28;20025;-87
2024/03/30 13:01:50;;;;;;;12.70;1.95;;;21.40;81.10;;;;;;8307960;28;20032;-87
2024/03/30 13:05:50;;;;;;;7.57;2.45;;;21.30;79.40;;;;;;8311380;28;20044;-87
2024/03/30 13:09:51;;;;;;;10.25;1.35;;;21.30;77.50;;;;;;8303970;28;20018;-87
2024/03/30 13:13:53;;;;;;;11.95;1.77;;;21.20;77.60;;;;;;8303545;28;20103;-87
2024/03/30 13:18:04;;;;;;;13.10;2.38;;;21.00;76.60;;;;;;8309347;28;20083;-86
2024/03/30 13:22:10;;;;;;;12.15;2.42;;;20.90;77.20;;;;;;8315470;28;20038;-85
2024/03/30 13:26:10;;;;;;;9.80;2.10;;;20.80;77.70;;;;;;8303409;28;20030;-86
2024/03/30 13:30:12;;;;;;;10.23;1.70;;;20.60;78.00;;;;;;8302047;28;20036;-86
2024/03/30 13:34:15;;;;;;;11.80;1.58;;;20.30;81.70;;;;;;8302426;28;20022;-86
2024/03/30 13:38:16;;;;;;;5.40;1.40;;;20.00;83.50;;;;;;8297696;28;20026;-86
2024/03/30 13:42:17;;;;;;;9.88;1.50;;;19.80;85.60;;;;;;8296881;28;20583;-86
2024/03/30 13:46:17;;;;;;;13.35;1.73;;;19.50;91.50;;;;;;8301502;28;20120;-86
2024/03/30 13:50:18;;;;;;;11.80;1.63;;;19.40;90.30;;;;;;8314583;28;20032;-85
2024/03/30 13:54:18;;;;;;;8.18;1.70;;;19.20;87.40;;;;;;8299521;28;20032;-87
2024/03/30 13:58:19;;;;;;;12.98;2.15;;;19.30;87.70;;;;;;8302922;28;20037;-86
2024/03/30 14:02:19;;;;;;;15.20;1.70;;;18.90;90.80;;;;;;8294077;28;20034;-85
2024/03/30 14:06:20;;;;;;;11.38;2.30;;;18.60;90.70;;;;;;8294637;28;20022;-85
2024/03/30 14:10:20;;;;;;;12.50;2.10;;;18.50;90.30;;;;;;8290681;28;20044;-86
2024/03/30 14:14:21;;;;;;;13.75;1.98;;;18.50;90.90;;;;;;8289925;28;20041;-86
2024/03/30 14:18:21;;;;;;;12.32;2.60;;;18.50;92.20;;;;;;8289546;28;20022;-85
2024/03/30 14:22:22;;;;;;;9.98;1.45;;;18.50;95.70;;;;;;8314991;28;20045;-85
2024/03/30 14:26:22;;;;;;;12.43;1.85;;;18.60;96.40;;;;;;8297432;28;20029;-86
2024/03/30 14:30:23;;;;;;;14.85;1.80;;;18.70;96.50;;;;;;8291495;28;20022;-86
2024/03/30 14:34:24;;;;;;;13.63;2.13;;;18.70;96.10;;;;;;8289143;28;20029;-86
2024/03/30 14:38:25;;;;;;;11.45;2.22;;;18.80;96.70;;;;;;8313508;28;20045;-86
2024/03/30 14:42:26;;;;;;;17.33;2.92;;;19.20;96.60;;;;;;8297420;28;20033;-86
2024/03/30 14:46:27;;;;;;;10.38;2.35;;;19.20;96.10;;;;;;8315448;28;20116;-86
2024/03/30 14:50:28;;;;;;;7.45;2.08;;;19.30;97.00;;;;;;8295066;28;20026;-86
2024/03/30 14:54:28;;;;;;;14.35;2.65;;;19.20;98.00;;;;;;8311056;28;20022;-85
2024/03/30 14:58:29;;;;;;;17.58;2.60;;;19.20;96.30;;;;;;8303400;28;20437;-86
2024/03/30 15:02:31;;;;;;;13.73;3.13;;;19.20;97.00;;;;;;8302841;28;20030;-86
2024/03/30 15:06:36;;;;;;;14.65;2.83;;;19.10;95.00;;;;;;8298019;28;20065;-86
2024/03/30 15:10:37;;;;;;;14.65;2.65;;;19.00;95.70;;;;;;8290855;28;20071;-85
2024/03/30 15:14:38;;;;;;;14.30;2.20;;;18.90;99.10;;;;;;8297942;28;20018;-86
2024/03/30 15:18:38;;;;;;;14.88;2.70;;;18.90;97.90;;;;;;8295414;28;20026;-86
2024/03/30 15:22:39;;;;;;;6.95;2.15;;;18.60;99.90;;;;;;8304939;28;20410;-85
2024/03/30 15:26:39;;;;;;;11.68;1.85;;;18.70;99.90;;;;;;8305048;28;20045;-86
2024/03/30 15:34:59;;;;;;;14.15;2.00;;;18.30;99.50;;;;;;8305334;28;20036;-86
2024/03/30 15:38:59;;;;;;;12.35;1.63;;;18.20;99.90;;;;;;8303804;28;20238;-86
2024/03/30 15:43:00;;;;;;;14.18;1.60;;;18.20;98.60;;;;;;8303816;28;20050;-86
2024/03/30 15:47:01;;;;;;;11.10;1.85;;;18.10;98.50;;;;;;8307727;28;20045;-85
2024/03/30 15:51:03;;;;;;;8.52;2.03;;;17.90;99.70;;;;;;8302654;28;20084;-86
2024/03/30 15:55:04;;;;;;;17.60;1.85;;;17.90;99.90;;;;;;8303708;28;20030;-86
2024/03/30 15:59:05;;;;;;;17.63;1.88;;;17.80;99.20;;;;;;8303346;28;20056;-86
2024/03/30 16:03:05;;;;;;;8.65;2.08;;;17.80;99.70;;;;;;8303122;28;20088;-86
2024/03/30 16:07:06;;;;;;;14.43;2.30;;;17.80;99.90;;;;;;8303709;28;20025;-86
2024/03/30 16:11:06;;;;;;;10.35;1.73;;;18.00;99.90;;;;;;8302801;28;20030;-84
2024/03/30 16:15:07;;;;;;;17.15;2.40;;;18.50;99.90;;;;;;8299894;28;20486;-86
2024/03/30 16:19:08;;;;;;;14.23;2.42;;;19.20;99.90;;;;;;8305285;28;20494;-85
2024/03/30 16:23:08;;;;;;;18.75;2.78;;;19.20;99.90;;;;;;8297441;28;20037;-85
2024/03/30 16:27:09;;;;;;;16.92;3.35;;;19.40;99.60;;;;;;8302839;28;20052;-86
2024/03/30 16:31:09;;;;;;;12.95;2.17;;;19.20;99.90;;;;;;8297148;28;20080;-85
2024/03/30 16:35:10;;;;;;;10.88;2.22;;;18.80;99.90;;;;;;8303244;28;20029;-86
2024/03/30 16:39:10;;;;;;;16.10;3.10;;;18.30;99.90;;;;;;8307009;28;20112;-85
2024/03/30 16:43:11;;;;;;;10.50;2.20;;;17.80;99.90;;;;;;8298482;28;20398;-86
2024/03/30 16:47:14;;;;;;;13.70;2.15;;;17.50;99.90;;;;;;8301692;28;20030;-85
2024/03/30 16:51:15;;;;;;;14.63;3.42;;;17.20;99.90;;;;;;8305867;28;20073;-86
2024/03/30 16:55:15;;;;;;;11.20;2.33;;;16.50;99.90;;;;;;8304593;28;20754;-86
2024/03/30 16:59:16;;;;;;;8.75;1.45;;;16.10;99.90;;;;;;8301493;28;20021;-85
2024/03/30 17:03:16;;;;;;;11.43;1.60;;;15.70;99.90;;;;;;8296939;28;20017;-84
2024/03/30 17:07:18;;;;;;;1.17;0.73;;;15.40;99.90;;;;;;8300042;28;20014;-86
2024/03/30 17:11:19;;;;;;;6.70;1.30;;;14.90;99.20;;;;;;8295136;28;20050;-85
2024/03/30 17:15:19;;;;;;;11.90;2.03;;;14.50;99.90;;;;;;8294635;28;20501;-85
2024/03/30 17:19:20;;;;;;;9.82;1.30;;;14.30;99.90;;;;;;8297597;28;20048;-84
2024/03/30 17:23:21;;;;;;;13.48;2.47;;;14.00;99.90;;;;;;8298536;28;20040;-85
2024/03/30 17:27:22;;;;;;;12.88;1.52;;;13.60;99.90;;;;;;8296560;28;20018;-85
2024/03/30 17:31:23;;;;;;;8.73;1.55;;;13.30;99.90;;;;;;8297166;28;20018;-85
2024/03/30 17:35:23;;;;;;;10.48;1.60;;;13.10;99.90;;;;;;8297616;28;20394;-85
2024/03/30 17:39:24;;;;;;;16.02;2.92;;;12.60;99.90;;;;;;8299577;28;20022;-85
2024/03/30 17:43:24;;;;;;;15.82;1.98;;;12.40;99.90;;;;;;8292736;28;20052;-86
2024/03/30 17:47:26;;;;;;;11.57;1.80;;;12.20;99.90;;;;;;8304501;28;20031;-85
2024/03/30 17:51:26;;;;;;;10.07;1.92;;;12.40;99.90;;;;;;8297714;28;20029;-85
2024/03/30 17:55:27;;;;;;;15.10;1.88;;;12.50;99.90;;;;;;8297252;28;20061;-85
2024/03/30 17:59:27;;;;;;;7.05;1.85;;;12.00;99.90;;;;;;8298907;28;20037;-83
2024/03/30 18:03:28;;;;;;;15.13;1.77;;;12.00;99.90;;;;;;8295777;28;20537;-85
2024/03/30 18:07:28;;;;;;;7.50;1.77;;;12.00;99.90;;;;;;8296744;28;20018;-85
2024/03/30 18:11:29;;;;;;;8.25;1.13;;;11.80;99.90;;;;;;8294558;28;20025;-85
2024/03/30 18:15:30;;;;;;;14.07;0.80;;;12.10;99.90;;;;;;8292562;28;20049;-84
2024/03/30 18:19:30;;;;;;;14.77;2.03;;;12.20;99.90;;;;;;8311823;28;20723;-85
2024/03/30 18:23:32;;;;;;;12.07;1.50;;;12.00;99.90;;;;;;8293018;28;20030;-84
2024/03/30 18:27:33;;;;;;;18.30;1.95;;;12.00;99.90;;;;;;8295395;28;20029;-84
2024/03/30 18:31:33;;;;;;;16.52;1.55;;;11.70;99.90;;;;;;8289480;28;20026;-85
2024/03/30 18:35:35;;;;;;;11.48;1.48;;;11.60;99.90;;;;;;8288712;28;20029;-85
2024/03/30 18:39:35;;;;;;;8.48;1.65;;;11.20;99.90;;;;;;8309082;28;20069;-85
2024/03/30 18:43:37;;;;;;;7.32;1.58;;;11.10;99.90;;;;;;8294574;28;20068;-85
2024/03/30 18:47:37;;;;;;;10.98;1.30;;;10.90;99.90;;;;;;8299111;28;20144;-85
2024/03/30 18:51:39;;;;;;;7.07;1.30;;;10.50;99.90;;;;;;8295592;28;20038;-85
2024/03/30 18:55:40;;;;;;;13.45;1.90;;;10.60;99.90;;;;;;8313797;28;20021;-85
2024/03/30 18:59:40;;;;;;;15.88;1.77;;;10.40;99.90;;;;;;8302683;28;20045;-84
2024/03/30 19:03:41;;;;;;;12.65;1.98;;;10.40;99.90;;;;;;8303948;28;20021;-85
2024/03/30 19:07:42;;;;;;;9.07;1.85;;;10.40;99.90;;;;;;8297897;28;20057;-84
2024/03/30 19:11:45;;;;;;;6.93;1.80;;;10.20;99.90;;;;;;8298833;28;20085;-84
2024/03/30 19:15:52;;;;;;;15.93;1.70;;;10.00;99.90;;;;;;8299718;28;20270;-84
2024/03/30 19:19:57;;;;;;;12.10;1.65;;;10.00;99.90;;;;;;8293995;28;20029;-83
2024/03/30 19:23:57;;;;;;;14.27;1.90;;;10.10;99.90;;;;;;8301636;28;20795;-85
2024/03/30 19:27:58;;;;;;;8.38;1.73;;;9.80;99.90;;;;;;8297110;28;20021;-85
2024/03/30 19:31:59;;;;;;;14.20;2.10;;;9.80;99.90;;;;;;8295051;28;20092;-84
2024/03/30 19:35:59;;;;;;;7.50;1.17;;;9.70;99.90;;;;;;8301001;28;20037;-84
2024/03/30 19:40:00;;;;;;;10.07;1.60;;;9.40;99.90;;;;;;8316172;28;20134;-85
2024/03/30 19:44:00;;;;;;;12.15;1.83;;;9.30;99.90;;;;;;8304001;28;20044;-84
2024/03/30 19:48:02;;;;;;;14.25;2.60;;;9.00;99.90;;;;;;8299325;28;20057;-85
2024/03/30 19:52:03;;;;;;;12.27;1.77;;;8.80;99.90;;;;;;8295823;28;20033;-84
2024/03/30 19:56:04;;;;;;;11.15;1.70;;;8.80;99.90;;;;;;8302743;28;20053;-84
2024/03/30 20:00:05;;;;;;;18.27;1.73;;;8.80;99.90;;;;;;8298698;28;20076;-84
2024/03/30 20:04:09;;;;;;;9.98;1.50;;;8.40;99.90;;;;;;8304692;28;20033;-85
2024/03/30 20:08:10;;;;;;;9.90;1.60;;;8.30;99.90;;;;;;8297614;28;20033;-85
2024/03/30 20:12:10;;;;;;;3.60;1.70;;;8.10;99.90;;;;;;8293440;28;20083;-85
2024/03/30 20:16:11;;;;;;;10.52;2.45;;;8.10;99.90;;;;;;8287093;28;20038;-85
2024/03/30 20:20:15;;;;;;;8.13;2.40;;;8.20;99.90;;;;;;8297669;28;20112;-84
2024/03/30 20:24:16;;;;;;;16.13;2.80;;;8.30;99.90;;;;;;8290286;28;20041;-85
2024/03/30 20:28:16;;;;;;;6.65;1.50;;;8.00;99.90;;;;;;8300713;28;20025;-85
2024/03/30 20:32:19;;;;;;;10.95;1.58;;;7.80;99.90;;;;;;8295152;28;20037;-84
2024/03/30 20:36:20;;;;;;;16.83;2.05;;;7.70;99.90;;;;;;8294924;28;20669;-84
2024/03/30 20:40:20;;;;;;;11.77;1.52;;;7.70;99.90;;;;;;8299222;28;20049;-83
2024/03/30 20:44:21;;;;;;;8.88;1.20;;;7.80;99.90;;;;;;8298458;28;20034;-85
2024/03/30 20:48:21;;;;;;;5.95;1.52;;;8.60;99.90;;;;;;8297653;28;20036;-85
2024/03/30 20:52:22;;;;;;;10.52;1.88;;;8.70;99.90;;;;;;8301984;28;20061;-85
2024/03/30 20:56:22;;;;;;;8.85;1.65;;;8.50;99.90;;;;;;8303966;28;20088;-85
2024/03/30 21:00:24;;;;;;;13.52;2.17;;;8.20;99.90;;;;;;8297140;28;20022;-84
2024/03/30 21:04:24;;;;;;;9.63;1.88;;;8.00;99.90;;;;;;8294075;28;20081;-85
2024/03/30 21:08:25;;;;;;;10.40;2.40;;;7.90;99.90;;;;;;8297461;28;20034;-85